Time;durP1;ratioP1;P1;durP2;ratioP2;P2;SDS_P1;SDS_P2;PMS_P1;PMS_P2;Temp;Humidity;BMP_temperature;BMP_pressure;BME280_temperature;BME280_humidity;BME280_pressure;Samples;Min_cycle;Max_cycle;Signal;HPM_P1;HPM_P2
2024/01/19 00:00:27;;;;;;;1.83;0.37;;;0.90;99.90;;;;;;5058579;28;20056;-69
2024/01/19 00:02:53;;;;;;;1.97;0.63;;;1.00;99.90;;;;;;5052034;28;20465;-70
2024/01/19 00:05:19;;;;;;;0.87;0.20;;;1.00;99.90;;;;;;5026899;28;20051;-71
2024/01/19 00:07:45;;;;;;;1.42;0.32;;;1.00;99.90;;;;;;5061824;28;20040;-70
2024/01/19 00:10:11;;;;;;;0.33;0.20;;;1.00;99.90;;;;;;5028709;28;20051;-70
2024/01/19 00:12:37;;;;;;;2.60;0.50;;;1.00;99.90;;;;;;5061050;28;20252;-70
2024/01/19 00:15:09;;;;;;;1.93;0.50;;;1.10;99.90;;;;;;5045227;28;20100;-70
2024/01/19 00:17:36;;;;;;;4.10;0.45;;;1.10;99.90;;;;;;5047436;28;20067;-71
2024/01/19 00:20:14;;;;;;;3.40;0.40;;;1.00;99.90;;;;;;5042203;28;20499;-73
2024/01/19 00:22:45;;;;;;;2.38;0.60;;;1.00;99.90;;;;;;5050932;28;20032;-74
2024/01/19 00:25:11;;;;;;;2.70;0.88;;;1.10;99.90;;;;;;5050244;28;20428;-73
2024/01/19 00:28:07;;;;;;;0.73;0.25;;;1.10;99.90;;;;;;5048086;28;20040;-72
2024/01/19 00:30:42;;;;;;;2.20;0.30;;;1.20;99.90;;;;;;5043804;28;20680;-73
2024/01/19 00:33:12;;;;;;;3.55;0.28;;;1.20;99.90;;;;;;5043130;28;20073;-71
2024/01/19 00:35:41;;;;;;;3.95;0.75;;;1.20;99.90;;;;;;5047839;28;20125;-72
2024/01/19 00:38:37;;;;;;;6.07;0.98;;;1.20;99.90;;;;;;5044571;28;20143;-74
2024/01/19 00:41:06;;;;;;;1.30;0.30;;;1.10;99.90;;;;;;5008258;28;20115;-72
2024/01/19 00:43:32;;;;;;;1.20;0.32;;;1.20;99.90;;;;;;5035799;28;20057;-72
2024/01/19 00:46:16;;;;;;;3.33;0.38;;;1.20;99.90;;;;;;5044550;28;20045;-73
2024/01/19 00:48:54;;;;;;;7.82;0.93;;;1.20;99.90;;;;;;5069025;28;20116;-71
2024/01/19 00:51:23;;;;;;;2.45;0.60;;;1.20;99.90;;;;;;5067422;28;20051;-72
2024/01/19 00:53:55;;;;;;;5.82;0.75;;;1.10;99.90;;;;;;5063730;28;20044;-70
2024/01/19 00:56:22;;;;;;;2.90;0.40;;;1.10;99.90;;;;;;5047264;28;20378;-71
2024/01/19 00:58:50;;;;;;;1.10;0.28;;;1.10;99.90;;;;;;5047278;28;20130;-70
2024/01/19 01:01:16;;;;;;;4.60;0.43;;;1.10;99.90;;;;;;5051788;28;20037;-71
2024/01/19 01:03:46;;;;;;;1.85;0.38;;;1.00;99.90;;;;;;5033195;28;20062;-70
2024/01/19 01:06:13;;;;;;;5.65;0.88;;;1.00;99.90;;;;;;5051621;28;20516;-70
2024/01/19 01:08:48;;;;;;;4.80;0.60;;;0.90;99.90;;;;;;5027581;28;20570;-70
2024/01/19 01:11:14;;;;;;;2.05;0.30;;;0.90;99.90;;;;;;5051057;28;20060;-73
2024/01/19 01:13:41;;;;;;;;;;;0.90;99.90;;;;;;5030628;28;20059;-70
2024/01/19 01:16:07;;;;;;;3.83;0.80;;;0.80;99.90;;;;;;5031241;28;19970;-70
2024/01/19 01:18:35;;;;;;;2.90;0.50;;;0.80;99.90;;;;;;5055606;28;20077;-70
2024/01/19 01:21:01;;;;;;;5.57;1.27;;;0.70;99.90;;;;;;5057705;28;20045;-70
2024/01/19 01:23:27;;;;;;;1.50;0.50;;;0.70;99.90;;;;;;5040413;28;20044;-70
2024/01/19 01:25:53;;;;;;;3.97;0.95;;;0.70;99.90;;;;;;5046371;28;20048;-70
2024/01/19 01:28:19;;;;;;;0.93;0.37;;;0.70;99.90;;;;;;5036288;28;20056;-69
2024/01/19 01:30:44;;;;;;;1.03;0.30;;;0.60;99.90;;;;;;5039309;28;20041;-70
2024/01/19 01:33:11;;;;;;;1.40;0.40;;;0.60;99.90;;;;;;5055012;28;20493;-69
2024/01/19 01:35:37;;;;;;;3.95;0.80;;;0.50;99.90;;;;;;5039436;28;20045;-69
2024/01/19 01:38:04;;;;;;;3.38;0.57;;;0.50;99.90;;;;;;5041395;28;20048;-71
2024/01/19 01:40:33;;;;;;;1.25;0.45;;;0.50;99.90;;;;;;5051002;28;20053;-68
2024/01/19 01:43:00;;;;;;;0.60;0.30;;;0.40;99.90;;;;;;5061503;28;20043;-70
2024/01/19 01:45:29;;;;;;;3.95;0.43;;;0.40;99.90;;;;;;5052276;28;20521;-69
2024/01/19 01:47:58;;;;;;;1.25;0.47;;;0.40;99.90;;;;;;5042703;28;20052;-69
2024/01/19 01:50:24;;;;;;;2.22;0.60;;;0.40;99.90;;;;;;5031194;28;20143;-76
2024/01/19 01:52:53;;;;;;;1.37;0.40;;;0.40;99.90;;;;;;5045487;28;20119;-69
2024/01/19 01:55:18;;;;;;;0.95;0.50;;;0.40;99.90;;;;;;5060035;28;20051;-77
2024/01/19 01:57:47;;;;;;;1.77;0.50;;;0.40;99.90;;;;;;5030126;28;20050;-68
2024/01/19 02:00:18;;;;;;;2.07;0.40;;;0.30;99.90;;;;;;5072180;28;20044;-69
2024/01/19 02:02:44;;;;;;;4.50;0.65;;;0.30;99.90;;;;;;5042233;28;20426;-75
2024/01/19 02:05:10;;;;;;;2.10;0.43;;;0.40;99.90;;;;;;5066606;28;20065;-69
2024/01/19 02:07:36;;;;;;;0.85;0.40;;;0.30;99.90;;;;;;5030009;28;20539;-69
2024/01/19 02:10:02;;;;;;;2.57;0.47;;;0.30;99.90;;;;;;5061829;28;20515;-69
2024/01/19 02:12:32;;;;;;;2.40;0.50;;;0.40;99.90;;;;;;5056115;28;20044;-69
2024/01/19 02:14:58;;;;;;;2.75;0.50;;;0.40;99.90;;;;;;5044397;28;20389;-69
2024/01/19 02:17:26;;;;;;;2.43;0.50;;;0.50;99.90;;;;;;5048420;28;20048;-70
2024/01/19 02:19:53;;;;;;;2.17;0.30;;;0.50;99.90;;;;;;5050716;28;20055;-69
2024/01/19 02:22:20;;;;;;;2.58;0.52;;;0.60;99.90;;;;;;5063223;28;20167;-69
2024/01/19 02:24:46;;;;;;;1.88;0.47;;;0.60;99.90;;;;;;5039802;28;20055;-69
2024/01/19 02:27:12;;;;;;;4.18;0.60;;;0.60;99.90;;;;;;5047759;28;20436;-69
2024/01/19 02:29:38;;;;;;;5.18;0.40;;;0.60;99.90;;;;;;5049565;28;20035;-70
2024/01/19 02:32:04;;;;;;;2.07;0.30;;;0.70;99.90;;;;;;5059962;28;20040;-68
2024/01/19 02:34:32;;;;;;;6.30;1.00;;;0.60;99.90;;;;;;5069849;28;20032;-69
2024/01/19 02:36:58;;;;;;;2.08;0.40;;;0.70;99.90;;;;;;5069977;28;20061;-70
2024/01/19 02:39:24;;;;;;;6.13;0.60;;;0.70;99.90;;;;;;5071473;28;20039;-68
2024/01/19 02:41:49;;;;;;;4.23;0.97;;;0.70;99.90;;;;;;5065403;28;20036;-68
2024/01/19 02:44:15;;;;;;;1.53;0.40;;;0.80;99.90;;;;;;5070327;28;20044;-72
2024/01/19 02:46:41;;;;;;;1.20;0.40;;;0.80;99.90;;;;;;5052348;28;20586;-71
2024/01/19 02:49:06;;;;;;;1.23;0.50;;;0.80;99.90;;;;;;5034358;28;20029;-71
2024/01/19 02:51:32;;;;;;;6.07;0.30;;;0.80;99.90;;;;;;5077206;28;20043;-71
2024/01/19 02:53:57;;;;;;;2.50;0.70;;;0.80;99.90;;;;;;5051748;28;20043;-71
2024/01/19 02:56:26;;;;;;;10.23;1.97;;;0.90;99.90;;;;;;5059477;28;20044;-71
2024/01/19 02:58:51;;;;;;;3.92;0.32;;;0.90;99.90;;;;;;5052935;28;20133;-69
2024/01/19 03:01:18;;;;;;;4.77;0.40;;;0.90;99.90;;;;;;5052336;28;20083;-71
2024/01/19 03:03:44;;;;;;;;;;;0.90;99.90;;;;;;5058712;28;20050;-71
2024/01/19 03:06:09;;;;;;;1.17;0.30;;;0.90;99.90;;;;;;5071545;28;19995;-69
2024/01/19 03:08:35;;;;;;;1.80;0.40;;;1.00;99.90;;;;;;5057291;28;20488;-69
2024/01/19 03:11:00;;;;;;;8.30;1.23;;;1.00;99.90;;;;;;5075410;28;20039;-70
2024/01/19 03:13:27;;;;;;;0.50;0.20;;;1.00;99.90;;;;;;5069428;28;20140;-69
2024/01/19 03:15:52;;;;;;;1.65;0.65;;;1.10;99.90;;;;;;5071674;28;20062;-70
2024/01/19 03:18:18;;;;;;;6.17;0.37;;;1.00;99.90;;;;;;5046613;28;20411;-69
2024/01/19 03:20:46;;;;;;;2.58;0.40;;;1.00;99.90;;;;;;5066932;28;20060;-69
2024/01/19 03:23:12;;;;;;;0.87;0.37;;;1.00;99.90;;;;;;5068661;28;20094;-69
2024/01/19 03:25:38;;;;;;;3.33;0.67;;;1.00;99.90;;;;;;5070784;28;20040;-69
2024/01/19 03:28:03;;;;;;;2.73;0.30;;;1.00;99.90;;;;;;5043283;28;20058;-69
2024/01/19 03:30:29;;;;;;;0.90;0.40;;;0.90;99.90;;;;;;5075887;28;20094;-70
2024/01/19 03:32:55;;;;;;;2.47;0.67;;;0.90;99.90;;;;;;5064950;28;20036;-70
2024/01/19 03:35:20;;;;;;;3.40;0.90;;;0.80;99.90;;;;;;5053026;28;20390;-70
2024/01/19 03:37:49;;;;;;;8.13;0.40;;;0.80;99.90;;;;;;5052464;28;20035;-70
2024/01/19 03:40:17;;;;;;;5.88;0.75;;;0.80;99.90;;;;;;5061166;28;20109;-70
2024/01/19 03:42:42;;;;;;;4.93;0.60;;;0.80;99.90;;;;;;5053768;28;20063;-70
2024/01/19 03:45:08;;;;;;;1.43;0.60;;;0.70;99.90;;;;;;5066647;28;20036;-70
2024/01/19 03:47:34;;;;;;;6.03;0.77;;;0.70;99.90;;;;;;5054148;28;20591;-70
2024/01/19 03:50:01;;;;;;;6.13;1.23;;;0.80;99.90;;;;;;5056002;28;21600;-70
2024/01/19 03:52:27;;;;;;;3.47;0.75;;;0.70;99.90;;;;;;5069578;28;20116;-70
2024/01/19 03:54:52;;;;;;;3.10;1.00;;;0.60;99.90;;;;;;5038051;28;20131;-70
2024/01/19 03:57:18;;;;;;;2.73;0.40;;;0.60;99.90;;;;;;5052795;28;20045;-69
2024/01/19 03:59:44;;;;;;;3.70;0.70;;;0.60;99.90;;;;;;5036795;28;20461;-70
2024/01/19 04:02:11;;;;;;;5.43;0.60;;;0.70;99.90;;;;;;5053781;28;20135;-71
2024/01/19 04:04:37;;;;;;;2.67;1.55;;;0.60;99.90;;;;;;5057433;28;20066;-70
2024/01/19 04:07:02;;;;;;;4.97;0.87;;;0.60;99.90;;;;;;5051431;28;20124;-70
2024/01/19 04:09:31;;;;;;;2.85;0.90;;;0.60;99.90;;;;;;5034313;28;20044;-70
2024/01/19 04:11:59;;;;;;;4.73;1.27;;;0.60;99.90;;;;;;5076147;28;20043;-70
2024/01/19 04:14:25;;;;;;;8.25;1.27;;;0.60;99.90;;;;;;5046257;28;20128;-70
2024/01/19 04:16:51;;;;;;;4.50;1.47;;;0.50;99.90;;;;;;5072308;28;20126;-70
2024/01/19 04:19:16;;;;;;;4.23;1.40;;;0.50;99.90;;;;;;5065896;28;20032;-70
2024/01/19 04:21:42;;;;;;;11.80;0.70;;;0.50;99.90;;;;;;5030333;28;20032;-70
2024/01/19 04:24:08;;;;;;;4.07;0.77;;;0.50;99.90;;;;;;5069784;28;20044;-70
2024/01/19 04:26:34;;;;;;;5.53;0.80;;;0.40;99.90;;;;;;5054124;28;20040;-70
2024/01/19 04:29:01;;;;;;;1.63;0.47;;;0.40;99.90;;;;;;5041121;28;20377;-70
2024/01/19 04:31:27;;;;;;;8.27;1.88;;;0.40;99.90;;;;;;5069447;28;20044;-70
2024/01/19 04:33:53;;;;;;;8.97;0.97;;;0.30;99.90;;;;;;5048536;28;20120;-70
2024/01/19 04:36:21;;;;;;;3.67;0.83;;;0.30;99.90;;;;;;5053109;28;20235;-70
2024/01/19 04:38:51;;;;;;;3.25;0.70;;;0.20;99.90;;;;;;5050328;28;20040;-71
2024/01/19 04:41:16;;;;;;;5.55;0.80;;;0.20;99.90;;;;;;5053125;28;20037;-69
2024/01/19 04:43:42;;;;;;;2.50;0.90;;;0.20;99.90;;;;;;5033162;28;20385;-69
2024/01/19 04:46:08;;;;;;;3.97;0.87;;;0.10;99.90;;;;;;5071469;28;20036;-70
2024/01/19 04:48:33;;;;;;;1.20;0.30;;;0.00;99.90;;;;;;5054893;28;20075;-70
2024/01/19 04:50:59;;;;;;;3.60;0.60;;;0.00;99.90;;;;;;5069377;28;20114;-70
2024/01/19 04:53:25;;;;;;;4.67;0.60;;;-0.10;99.90;;;;;;5066886;28;20044;-70
2024/01/19 04:55:53;;;;;;;1.07;0.40;;;-0.10;99.90;;;;;;5039042;28;20050;-69
2024/01/19 04:58:19;;;;;;;2.95;0.70;;;-0.10;99.90;;;;;;5069979;28;20048;-70
2024/01/19 05:00:47;;;;;;;2.60;0.70;;;-0.20;99.90;;;;;;5053927;28;20044;-69
2024/01/19 05:03:13;;;;;;;2.05;0.65;;;-0.20;99.90;;;;;;5049819;28;20050;-69
2024/01/19 05:05:39;;;;;;;2.00;0.50;;;-0.20;99.90;;;;;;5053201;28;20439;-70
2024/01/19 05:08:05;;;;;;;4.63;0.70;;;-0.30;99.90;;;;;;5072703;28;20051;-70
2024/01/19 05:10:32;;;;;;;1.07;0.30;;;-0.30;99.90;;;;;;5047178;28;20371;-69
2024/01/19 05:12:58;;;;;;;5.85;0.57;;;-0.30;99.90;;;;;;5057267;28;20041;-70
2024/01/19 05:15:23;;;;;;;3.00;0.60;;;-0.40;99.90;;;;;;5056494;28;20066;-70
2024/01/19 05:17:49;;;;;;;3.43;0.93;;;-0.40;99.90;;;;;;5070871;28;20090;-69
2024/01/19 05:20:15;;;;;;;7.97;2.17;;;-0.40;99.90;;;;;;5055821;28;20059;-70
2024/01/19 05:22:46;;;;;;;5.32;0.82;;;-0.40;99.90;;;;;;5041471;28;20504;-70
2024/01/19 05:25:12;;;;;;;3.95;1.08;;;-0.40;99.90;;;;;;5074332;28;20036;-69
2024/01/19 05:27:38;;;;;;;4.83;1.30;;;-0.50;99.90;;;;;;5050276;28;20085;-69
2024/01/19 05:30:04;;;;;;;3.17;0.82;;;-0.50;99.90;;;;;;5043226;28;20080;-69
2024/01/19 05:32:30;;;;;;;5.93;1.83;;;-0.50;99.90;;;;;;5052305;28;20118;-69
2024/01/19 05:34:56;;;;;;;5.73;0.67;;;-0.50;99.90;;;;;;5051792;28;20280;-69
2024/01/19 05:37:21;;;;;;;10.00;1.27;;;-0.50;99.90;;;;;;5038136;28;20039;-69
2024/01/19 05:39:50;;;;;;;2.20;0.63;;;-0.50;99.90;;;;;;5058774;28;20040;-69
2024/01/19 05:42:15;;;;;;;3.95;1.05;;;-0.50;99.90;;;;;;5054047;28;20044;-69
2024/01/19 05:44:42;;;;;;;1.23;0.60;;;-0.40;99.90;;;;;;5054865;28;21471;-69
2024/01/19 05:47:07;;;;;;;4.55;1.00;;;-0.40;99.90;;;;;;5050740;28;20048;-69
2024/01/19 05:49:33;;;;;;;6.90;1.00;;;-0.40;99.90;;;;;;5037113;28;20110;-69
2024/01/19 05:51:59;;;;;;;4.70;0.77;;;-0.30;99.90;;;;;;5048238;28;20044;-68
2024/01/19 05:54:24;;;;;;;3.37;0.87;;;-0.30;99.90;;;;;;5072702;28;20043;-69
2024/01/19 05:56:52;;;;;;;3.55;0.63;;;-0.30;99.90;;;;;;5068539;28;20093;-69
2024/01/19 05:59:18;;;;;;;3.78;0.70;;;-0.20;99.90;;;;;;5071246;28;20047;-69
2024/01/19 06:01:44;;;;;;;7.90;0.93;;;-0.10;99.90;;;;;;5066973;28;20036;-69
2024/01/19 06:04:09;;;;;;;2.40;0.80;;;-0.10;99.90;;;;;;5057987;28;20132;-71
2024/01/19 06:06:35;;;;;;;7.03;0.97;;;-0.10;99.90;;;;;;5056889;28;20036;-68
2024/01/19 06:09:01;;;;;;;2.50;0.70;;;0.00;99.90;;;;;;5048481;28;20037;-69
2024/01/19 06:11:27;;;;;;;2.40;0.77;;;0.00;99.90;;;;;;5072617;28;20081;-69
2024/01/19 06:13:52;;;;;;;6.38;0.98;;;0.00;99.90;;;;;;5035750;28;20044;-69
2024/01/19 06:16:21;;;;;;;5.10;0.77;;;0.00;99.90;;;;;;5054252;28;20047;-69
2024/01/19 06:18:47;;;;;;;5.30;1.43;;;0.00;99.90;;;;;;5069333;28;20433;-69
2024/01/19 06:21:12;;;;;;;3.20;0.70;;;0.10;99.90;;;;;;5037335;28;20048;-69
2024/01/19 06:23:38;;;;;;;6.00;1.33;;;0.10;99.90;;;;;;5064588;28;20035;-69
2024/01/19 06:26:16;;;;;;;5.18;0.80;;;0.10;99.90;;;;;;5044629;28;20036;-69
2024/01/19 06:28:44;;;;;;;1.55;0.70;;;0.00;99.90;;;;;;5052551;28;20070;-70
2024/01/19 06:31:10;;;;;;;6.35;1.20;;;0.00;99.90;;;;;;5052794;28;20045;-70
2024/01/19 06:33:37;;;;;;;1.90;0.93;;;0.00;99.90;;;;;;5048202;28;20036;-70
2024/01/19 06:36:09;;;;;;;4.32;0.75;;;-0.10;99.90;;;;;;5069534;28;20424;-70
2024/01/19 06:38:38;;;;;;;6.53;0.85;;;-0.10;99.90;;;;;;5072740;28;20080;-69
2024/01/19 06:41:04;;;;;;;4.60;0.80;;;-0.20;99.90;;;;;;5056605;28;20115;-69
2024/01/19 06:43:33;;;;;;;4.00;0.60;;;-0.20;99.90;;;;;;5054650;28;20169;-69
2024/01/19 06:45:59;;;;;;;3.80;1.20;;;-0.30;99.90;;;;;;5065775;28;20070;-69
2024/01/19 06:48:25;;;;;;;3.95;0.95;;;-0.40;99.90;;;;;;5055361;28;20044;-69
2024/01/19 06:50:50;;;;;;;6.90;1.10;;;-0.40;99.90;;;;;;5050967;28;20051;-70
2024/01/19 06:53:22;;;;;;;4.70;1.23;;;-0.40;99.90;;;;;;5053119;28;20554;-69
2024/01/19 06:55:49;;;;;;;6.97;1.35;;;-0.40;99.90;;;;;;5066477;28;20140;-70
2024/01/19 06:58:14;;;;;;;6.22;0.80;;;-0.40;99.90;;;;;;5053119;28;20044;-69
2024/01/19 07:00:40;;;;;;;3.73;0.90;;;-0.40;99.90;;;;;;5064412;28;20051;-69
2024/01/19 07:03:05;;;;;;;2.20;0.90;;;-0.30;99.90;;;;;;5049845;28;20128;-69
2024/01/19 07:05:31;;;;;;;4.93;0.53;;;-0.30;99.90;;;;;;5071170;28;20042;-69
2024/01/19 07:07:58;;;;;;;6.27;0.80;;;-0.30;99.90;;;;;;5050072;28;20044;-69
2024/01/19 07:10:23;;;;;;;;;;;-0.20;99.90;;;;;;5050222;28;20036;-69
2024/01/19 07:12:49;;;;;;;7.32;0.88;;;-0.20;99.90;;;;;;5049816;28;19923;-69
2024/01/19 07:15:15;;;;;;;10.13;0.93;;;-0.20;99.90;;;;;;5050056;28;20094;-69
2024/01/19 07:17:43;;;;;;;8.20;1.17;;;-0.20;99.90;;;;;;5043755;28;20778;-69
2024/01/19 07:20:09;;;;;;;2.65;0.95;;;-0.10;99.90;;;;;;5067450;28;20044;-69
2024/01/19 07:22:35;;;;;;;9.20;1.10;;;0.00;99.90;;;;;;5068616;28;20086;-69
2024/01/19 07:25:00;;;;;;;7.63;1.27;;;0.00;99.90;;;;;;5051185;28;20044;-69
2024/01/19 07:27:26;;;;;;;5.93;1.17;;;0.10;99.90;;;;;;5048317;28;20052;-69
2024/01/19 07:29:52;;;;;;;8.07;1.13;;;0.10;99.90;;;;;;5045224;28;20368;-69
2024/01/19 07:32:19;;;;;;;5.17;1.00;;;0.20;99.90;;;;;;5047208;28;20071;-69
2024/01/19 07:34:48;;;;;;;7.88;1.00;;;0.30;99.90;;;;;;5044221;28;20496;-69
2024/01/19 07:37:13;;;;;;;11.07;1.73;;;0.30;99.90;;;;;;5059430;28;20094;-69
2024/01/19 07:39:39;;;;;;;9.47;1.00;;;0.30;99.90;;;;;;5038000;28;20031;-68
2024/01/19 07:42:05;;;;;;;4.67;1.17;;;0.40;99.90;;;;;;5044738;28;20044;-69
2024/01/19 07:44:31;;;;;;;4.10;0.80;;;0.40;99.90;;;;;;5051138;28;20127;-70
2024/01/19 07:46:56;;;;;;;6.17;1.13;;;0.30;99.90;;;;;;5065142;28;20045;-70
2024/01/19 07:49:22;;;;;;;3.53;0.70;;;0.40;99.90;;;;;;5048027;28;20126;-70
2024/01/19 07:51:48;;;;;;;4.47;1.00;;;0.40;99.90;;;;;;5046243;28;20052;-70
2024/01/19 07:54:14;;;;;;;8.27;1.05;;;0.40;99.90;;;;;;5028004;28;20413;-70
2024/01/19 07:56:40;;;;;;;4.27;0.67;;;0.40;99.90;;;;;;5048571;28;20043;-70
2024/01/19 07:59:07;;;;;;;6.53;1.60;;;0.40;99.90;;;;;;5041919;28;20052;-70
2024/01/19 08:01:33;;;;;;;;;;;0.40;99.90;;;;;;5065810;28;20039;-70
2024/01/19 08:03:58;;;;;;;3.17;1.25;;;0.40;99.90;;;;;;5066185;28;19920;-70
2024/01/19 08:06:24;;;;;;;7.70;1.57;;;0.40;99.90;;;;;;5068311;28;20043;-71
2024/01/19 08:08:49;;;;;;;6.23;1.20;;;0.40;99.90;;;;;;5049655;28;20435;-70
2024/01/19 08:11:15;;;;;;;6.10;1.00;;;0.40;99.90;;;;;;5058974;28;20102;-70
2024/01/19 08:13:41;;;;;;;11.47;1.10;;;0.40;99.90;;;;;;5047132;28;20070;-70
2024/01/19 08:16:07;;;;;;;6.50;0.87;;;0.40;99.90;;;;;;5030409;28;20531;-70
2024/01/19 08:18:34;;;;;;;8.25;1.45;;;0.40;99.90;;;;;;5059546;28;20325;-70
2024/01/19 08:21:03;;;;;;;12.70;1.42;;;0.40;99.90;;;;;;5089742;28;20048;-68
2024/01/19 08:23:29;;;;;;;9.10;1.05;;;0.30;99.90;;;;;;5052105;28;20090;-69
2024/01/19 08:25:55;;;;;;;8.07;1.48;;;0.30;99.90;;;;;;5068161;28;20036;-69
2024/01/19 08:28:20;;;;;;;5.33;0.77;;;0.30;99.90;;;;;;5068648;28;20068;-69
2024/01/19 08:30:47;;;;;;;8.03;1.20;;;0.30;99.90;;;;;;5069800;28;20487;-69
2024/01/19 08:33:13;;;;;;;5.07;0.95;;;0.30;99.90;;;;;;5051805;28;20037;-68
2024/01/19 08:35:38;;;;;;;3.97;0.83;;;0.40;99.90;;;;;;5069403;28;20416;-69
2024/01/19 08:38:04;;;;;;;3.63;0.97;;;0.40;99.90;;;;;;5069837;28;20269;-69
2024/01/19 08:40:30;;;;;;;9.27;1.10;;;0.40;99.90;;;;;;5051749;28;20051;-69
2024/01/19 08:42:59;;;;;;;5.53;1.30;;;0.40;99.90;;;;;;5073794;28;20412;-69
2024/01/19 08:45:28;;;;;;;3.13;1.00;;;0.40;99.90;;;;;;5073502;28;20265;-69
2024/01/19 08:47:56;;;;;;;7.45;0.98;;;0.40;99.90;;;;;;5073487;28;20120;-69
2024/01/19 08:50:22;;;;;;;9.73;1.27;;;0.40;99.90;;;;;;5054944;28;20051;-70
2024/01/19 08:52:48;;;;;;;12.00;1.20;;;0.50;99.90;;;;;;5073664;28;20389;-69
2024/01/19 08:55:13;;;;;;;8.57;1.03;;;0.50;99.90;;;;;;5073202;28;20059;-70
2024/01/19 08:57:39;;;;;;;9.13;1.47;;;0.50;99.90;;;;;;5059338;28;20059;-71
2024/01/19 09:00:07;;;;;;;6.22;1.15;;;0.60;99.90;;;;;;5027195;28;20066;-71
2024/01/19 09:02:33;;;;;;;5.93;1.27;;;0.70;99.90;;;;;;5058184;28;20087;-73
2024/01/19 09:04:59;;;;;;;4.45;1.67;;;0.70;99.90;;;;;;5055224;28;20131;-71
2024/01/19 09:07:25;;;;;;;4.43;0.73;;;0.70;99.90;;;;;;5048805;28;20127;-70
2024/01/19 09:09:51;;;;;;;8.60;1.20;;;0.80;99.90;;;;;;5078874;28;20322;-69
2024/01/19 09:12:17;;;;;;;8.63;1.23;;;0.80;99.90;;;;;;5067876;28;20481;-70
2024/01/19 09:14:42;;;;;;;5.53;0.97;;;0.80;99.90;;;;;;5039808;28;20039;-72
2024/01/19 09:17:08;;;;;;;7.73;1.20;;;0.80;99.90;;;;;;5044834;28;20044;-68
2024/01/19 09:19:34;;;;;;;6.60;0.97;;;0.90;99.90;;;;;;5054355;28;20389;-71
2024/01/19 09:21:59;;;;;;;9.30;1.33;;;0.90;99.90;;;;;;5054363;28;20040;-68
2024/01/19 09:24:27;;;;;;;4.23;1.20;;;1.00;99.90;;;;;;5043414;28;20040;-71
2024/01/19 09:26:52;;;;;;;13.57;1.60;;;1.10;99.90;;;;;;5058150;28;20041;-70
2024/01/19 09:29:18;;;;;;;3.20;1.30;;;1.10;99.90;;;;;;5051349;28;20048;-69
2024/01/19 09:31:46;;;;;;;10.73;1.27;;;1.20;99.90;;;;;;5054680;28;20537;-76
2024/01/19 09:34:12;;;;;;;7.00;1.15;;;1.20;99.90;;;;;;5037687;28;20401;-70
2024/01/19 09:36:38;;;;;;;4.43;0.90;;;1.30;99.90;;;;;;5056436;28;20043;-72
2024/01/19 09:39:04;;;;;;;5.72;0.95;;;1.30;99.90;;;;;;5054334;28;20048;-69
2024/01/19 09:41:53;;;;;;;9.85;1.35;;;1.40;99.90;;;;;;5060804;28;20496;-71
2024/01/19 09:44:20;;;;;;;3.28;1.15;;;1.50;99.90;;;;;;5039757;28;20049;-73
2024/01/19 09:46:52;;;;;;;4.70;1.13;;;1.70;99.90;;;;;;5046247;28;20093;-72
2024/01/19 09:49:42;;;;;;;6.55;0.93;;;1.90;99.90;;;;;;5070882;28;20573;-74
2024/01/19 09:52:11;;;;;;;5.38;0.82;;;2.00;99.90;;;;;;5041056;28;20078;-69
2024/01/19 09:54:37;;;;;;;12.55;1.33;;;2.20;99.90;;;;;;5038745;28;20062;-71
2024/01/19 09:57:03;;;;;;;4.90;1.13;;;2.30;99.90;;;;;;5071894;28;20382;-77
2024/01/19 09:59:31;;;;;;;5.32;1.35;;;2.40;99.90;;;;;;5052072;28;20048;-68
2024/01/19 10:01:58;;;;;;;7.10;0.85;;;2.50;99.90;;;;;;5054098;28;20052;-68
2024/01/19 10:04:24;;;;;;;;;;;2.50;99.90;;;;;;5071842;28;20119;-68
2024/01/19 10:06:51;;;;;;;10.55;1.08;;;2.50;99.90;;;;;;5037456;28;20357;-68
2024/01/19 10:09:19;;;;;;;6.57;1.23;;;2.60;99.90;;;;;;5054353;28;20036;-68
2024/01/19 10:11:51;;;;;;;8.95;1.35;;;2.60;99.90;;;;;;5053932;28;20515;-67
2024/01/19 10:14:20;;;;;;;8.93;1.00;;;2.60;99.90;;;;;;5072186;28;20044;-68
2024/01/19 10:16:52;;;;;;;6.57;1.50;;;2.60;99.90;;;;;;5053944;28;20453;-68
2024/01/19 10:19:21;;;;;;;7.53;1.25;;;2.70;99.90;;;;;;5053930;28;20119;-68
2024/01/19 10:21:47;;;;;;;8.13;1.00;;;2.70;99.90;;;;;;5071924;28;20115;-67
2024/01/19 10:24:15;;;;;;;3.92;1.13;;;2.80;99.90;;;;;;5054024;28;20044;-68
2024/01/19 10:26:42;;;;;;;4.53;0.98;;;2.80;99.90;;;;;;5071766;28;20072;-68
2024/01/19 10:29:16;;;;;;;6.55;0.90;;;2.90;99.90;;;;;;5071932;28;20072;-68
2024/01/19 10:31:49;;;;;;;4.60;1.10;;;2.90;99.90;;;;;;5036786;28;20134;-65
2024/01/19 10:34:19;;;;;;;4.82;1.02;;;3.00;99.90;;;;;;5071743;28;20493;-67
2024/01/19 10:36:46;;;;;;;5.78;0.90;;;3.10;99.90;;;;;;5071258;28;20190;-66
2024/01/19 10:39:23;;;;;;;5.47;0.90;;;3.10;99.90;;;;;;5053826;28;20075;-67
2024/01/19 10:41:49;;;;;;;;;;;3.20;99.90;;;;;;5072344;28;20128;-67
2024/01/19 10:44:20;;;;;;;10.80;1.05;;;3.20;99.90;;;;;;5071744;28;19921;-67
2024/01/19 10:46:46;;;;;;;7.55;1.33;;;3.30;99.90;;;;;;5033548;28;20421;-67
2024/01/19 10:49:15;;;;;;;6.65;1.00;;;3.40;99.90;;;;;;5033411;28;20389;-67
2024/01/19 10:51:43;;;;;;;9.10;1.38;;;3.40;99.90;;;;;;5033308;28;20195;-67
2024/01/19 10:54:15;;;;;;;4.88;0.90;;;3.50;99.90;;;;;;5033473;28;20079;-67
2024/01/19 10:56:45;;;;;;;4.18;0.75;;;3.50;99.90;;;;;;5050884;28;20068;-67
2024/01/19 10:59:12;;;;;;;3.95;1.17;;;3.60;99.90;;;;;;5033068;28;20037;-67
2024/01/19 11:01:38;;;;;;;5.72;1.02;;;3.60;99.90;;;;;;5050919;28;20045;-66
2024/01/19 11:04:08;;;;;;;4.57;1.17;;;3.70;99.90;;;;;;5032640;28;20059;-67
2024/01/19 11:06:36;;;;;;;5.90;0.90;;;3.70;99.90;;;;;;5050902;28;20625;-67
2024/01/19 11:09:06;;;;;;;6.78;1.45;;;3.80;99.90;;;;;;5032820;28;20056;-66
2024/01/19 11:11:53;;;;;;;6.78;1.85;;;3.80;99.90;;;;;;5018541;28;20062;-67
2024/01/19 11:14:23;;;;;;;8.23;1.23;;;3.90;99.90;;;;;;5070487;28;20098;-71
2024/01/19 11:16:51;;;;;;;4.32;0.98;;;3.90;99.90;;;;;;5067744;28;20041;-68
2024/01/19 11:19:18;;;;;;;4.57;0.93;;;4.00;99.90;;;;;;5035725;28;20044;-67
2024/01/19 11:21:44;;;;;;;5.22;0.90;;;4.00;99.90;;;;;;5052343;28;20131;-67
2024/01/19 11:24:12;;;;;;;4.97;1.02;;;4.10;99.90;;;;;;5071221;28;20036;-67
2024/01/19 11:27:02;;;;;;;4.60;0.85;;;4.20;99.90;;;;;;5052180;28;20048;-67
2024/01/19 11:29:39;;;;;;;8.20;0.73;;;4.20;99.90;;;;;;5053518;28;20876;-67
2024/01/19 11:32:05;;;;;;;8.43;0.70;;;4.30;99.90;;;;;;5070264;28;20446;-67
2024/01/19 11:34:49;;;;;;;2.75;0.77;;;4.40;99.90;;;;;;5070520;28;20040;-67
2024/01/19 11:37:44;;;;;;;6.65;1.35;;;4.30;99.90;;;;;;5069074;28;20052;-67
2024/01/19 11:40:32;;;;;;;3.05;0.63;;;4.40;99.90;;;;;;5070766;28;20436;-67
2024/01/19 11:42:58;;;;;;;6.40;1.58;;;4.50;99.90;;;;;;5063741;28;20127;-67
2024/01/19 11:45:27;;;;;;;5.72;1.20;;;4.50;99.90;;;;;;5052888;28;20048;-67
2024/01/19 11:47:54;;;;;;;8.65;1.15;;;4.50;99.90;;;;;;5052042;28;20048;-67
2024/01/19 11:50:51;;;;;;;9.57;1.23;;;4.60;99.90;;;;;;5070228;28;20047;-67
2024/01/19 11:53:16;;;;;;;8.50;1.33;;;4.60;99.90;;;;;;5070490;28;20408;-68
2024/01/19 11:55:47;;;;;;;3.43;0.80;;;4.70;99.90;;;;;;5070014;28;20037;-67
2024/01/19 11:58:27;;;;;;;8.02;0.93;;;4.70;99.90;;;;;;5052466;28;20121;-67
2024/01/19 12:00:55;;;;;;;4.85;0.80;;;4.70;99.90;;;;;;5048749;28;20051;-69
2024/01/19 12:03:21;;;;;;;9.80;1.10;;;4.70;99.90;;;;;;5054550;28;20135;-68
2024/01/19 12:05:53;;;;;;;4.27;0.73;;;4.80;99.90;;;;;;5054230;28;20593;-68
2024/01/19 12:08:22;;;;;;;5.93;1.13;;;4.80;99.90;;;;;;5040535;28;20305;-72
2024/01/19 12:10:47;;;;;;;9.73;1.08;;;4.90;99.90;;;;;;5066614;28;20036;-73
2024/01/19 12:13:13;;;;;;;3.87;0.60;;;4.90;99.90;;;;;;5059842;28;20039;-71
2024/01/19 12:15:43;;;;;;;8.07;0.90;;;5.00;99.90;;;;;;5048103;28;20040;-73
2024/01/19 12:18:10;;;;;;;5.72;0.93;;;5.00;99.90;;;;;;5047564;28;20525;-72
2024/01/19 12:20:36;;;;;;;11.25;1.40;;;5.00;99.90;;;;;;5050237;28;20049;-70
2024/01/19 12:23:01;;;;;;;5.43;1.10;;;5.00;99.90;;;;;;5040688;28;20106;-73
2024/01/19 12:25:27;;;;;;;13.77;1.13;;;5.00;99.90;;;;;;5054642;28;20474;-71
2024/01/19 12:28:04;;;;;;;4.23;0.93;;;5.10;99.90;;;;;;5064789;28;20515;-71
2024/01/19 12:30:34;;;;;;;;;;;5.20;99.90;;;;;;5045673;28;20044;-74
2024/01/19 12:33:30;;;;;;;5.18;0.80;;;5.20;99.90;;;;;;5062847;28;19920;-77
2024/01/19 12:36:02;;;;;;;4.45;1.00;;;5.20;99.90;;;;;;5065190;28;20515;-73
2024/01/19 12:38:28;;;;;;;3.92;1.15;;;5.20;99.90;;;;;;5043165;28;20417;-73
2024/01/19 12:40:54;;;;;;;8.23;1.20;;;5.30;99.90;;;;;;5046295;28;20051;-76
2024/01/19 12:43:20;;;;;;;2.40;1.33;;;5.30;99.90;;;;;;5033044;28;20575;-72
2024/01/19 12:45:45;;;;;;;2.67;0.60;;;5.20;99.90;;;;;;5068107;28;20035;-73
2024/01/19 12:48:11;;;;;;;6.83;1.10;;;5.20;99.90;;;;;;5068856;28;20068;-73
2024/01/19 12:50:37;;;;;;;1.77;0.70;;;5.20;99.90;;;;;;5048441;28;20040;-72
2024/01/19 12:53:03;;;;;;;3.53;0.73;;;5.20;99.90;;;;;;5048031;28;20047;-71
2024/01/19 12:55:29;;;;;;;6.30;1.20;;;5.30;99.90;;;;;;5047082;28;20127;-72
2024/01/19 12:57:55;;;;;;;3.58;0.60;;;5.20;99.90;;;;;;5049521;28;20631;-72
2024/01/19 13:00:29;;;;;;;5.22;0.68;;;5.30;99.90;;;;;;5050972;28;20075;-72